Time;durP1;ratioP1;P1;durP2;ratioP2;P2;SDS_P1;SDS_P2;PMS_P1;PMS_P2;Temp;Humidity;BMP_temperature;BMP_pressure;BME280_temperature;BME280_humidity;BME280_pressure;Samples;Min_cycle;Max_cycle;Signal;HPM_P1;HPM_P2
2023/06/20 00:01:14;;;;;;;11.70;7.10;;;23.10;99.90;;;;;;4973297;28;20441;-84
2023/06/20 00:03:40;;;;;;;12.47;6.60;;;23.00;99.90;;;;;;4941607;29;20512;-84
2023/06/20 00:06:09;;;;;;;14.10;7.73;;;23.00;1.00;;;;;;4957172;29;20437;-84
2023/06/20 00:08:34;;;;;;;15.35;6.93;;;23.00;1.00;;;;;;4957416;28;20456;-84
2023/06/20 00:11:00;;;;;;;15.88;7.35;;;23.00;1.00;;;;;;4957510;29;20398;-84
2023/06/20 00:13:25;;;;;;;17.20;7.65;;;22.90;8.10;;;;;;4940066;29;20409;-84
2023/06/20 00:15:51;;;;;;;14.90;8.18;;;22.90;28.80;;;;;;4988383;28;20413;-84
2023/06/20 00:18:17;;;;;;;14.70;8.00;;;23.00;99.90;;;;;;4972477;28;20417;-84
2023/06/20 00:20:46;;;;;;;13.80;7.30;;;23.00;1.00;;;;;;4956815;29;20528;-84
2023/06/20 00:23:11;;;;;;;15.35;7.22;;;23.10;99.90;;;;;;4957774;29;20484;-84
2023/06/20 00:25:37;;;;;;;17.47;7.17;;;23.10;99.90;;;;;;4956627;29;20413;-84
2023/06/20 00:28:02;;;;;;;14.10;7.17;;;23.10;99.90;;;;;;4956675;29;20439;-84
2023/06/20 00:30:28;;;;;;;14.75;7.85;;;23.20;1.00;;;;;;4957142;29;20409;-84
2023/06/20 00:32:53;;;;;;;13.75;7.35;;;23.20;99.90;;;;;;4956954;29;20426;-84
2023/06/20 00:35:19;;;;;;;12.00;6.67;;;23.20;99.90;;;;;;4940459;29;20828;-84
2023/06/20 00:37:44;;;;;;;13.80;6.97;;;23.10;1.00;;;;;;4958078;29;20800;-84
2023/06/20 00:40:10;;;;;;;12.68;6.40;;;23.10;99.90;;;;;;4958035;29;20421;-84
2023/06/20 00:42:36;;;;;;;10.68;5.38;;;23.10;99.90;;;;;;4958386;29;20497;-81
2023/06/20 00:45:03;;;;;;;13.55;6.00;;;22.80;1.00;;;;;;4960247;29;20417;-81
2023/06/20 00:47:29;;;;;;;10.20;4.87;;;22.70;99.90;;;;;;4927358;29;20530;-82
2023/06/20 00:49:56;;;;;;;11.35;4.90;;;22.40;99.90;;;;;;4960230;29;20429;-82
2023/06/20 00:52:22;;;;;;;11.07;5.00;;;22.30;1.00;;;;;;4971464;28;20408;-81
2023/06/20 00:54:49;;;;;;;10.80;5.53;;;22.20;1.00;;;;;;4977883;28;20392;-82
2023/06/20 00:57:19;;;;;;;12.57;5.18;;;21.90;99.90;;;;;;4980253;28;20396;-82
2023/06/20 00:59:46;;;;;;;12.48;5.95;;;21.70;1.00;;;;;;4982634;28;20406;-82
2023/06/20 01:02:16;;;;;;;12.02;6.28;;;21.50;1.00;;;;;;4981641;28;20451;-82
2023/06/20 01:04:44;;;;;;;11.57;6.45;;;21.60;1.00;;;;;;4982324;28;20590;-82
2023/06/20 01:07:24;;;;;;;9.60;5.33;;;21.50;1.00;;;;;;4985300;28;20430;-82
2023/06/20 01:10:21;;;;;;;10.98;5.82;;;21.60;1.00;;;;;;4969840;28;20398;-82
2023/06/20 01:12:54;;;;;;;12.32;6.13;;;21.60;1.00;;;;;;4960365;29;20476;-82
2023/06/20 01:15:29;;;;;;;11.95;6.18;;;21.60;1.00;;;;;;4981488;28;20427;-82
2023/06/20 01:18:12;;;;;;;12.93;6.40;;;21.50;1.00;;;;;;5003023;28;20448;-81
2023/06/20 01:20:44;;;;;;;12.48;6.10;;;21.50;1.00;;;;;;5000123;28;20771;-81
2023/06/20 01:23:17;;;;;;;10.30;5.90;;;21.30;1.00;;;;;;4996415;28;21392;-83
2023/06/20 01:25:51;;;;;;;11.38;6.03;;;21.30;1.00;;;;;;4992537;28;20839;-81
2023/06/20 01:28:28;;;;;;;11.45;5.93;;;21.10;1.00;;;;;;4964108;28;20411;-82
2023/06/20 01:31:07;;;;;;;11.40;6.25;;;21.10;1.00;;;;;;4979584;28;20419;-82
2023/06/20 01:33:40;;;;;;;13.32;6.10;;;21.00;1.00;;;;;;4979436;28;20400;-82
2023/06/20 01:36:08;;;;;;;10.55;6.30;;;21.10;1.00;;;;;;4979885;28;20415;-82
2023/06/20 01:38:38;;;;;;;11.85;5.43;;;21.10;1.00;;;;;;4979718;28;22442;-82
2023/06/20 01:41:05;;;;;;;10.52;5.30;;;21.00;1.00;;;;;;4980390;28;20423;-82
2023/06/20 01:43:32;;;;;;;12.63;4.93;;;21.00;1.00;;;;;;4964425;28;20463;-82
2023/06/20 01:46:00;;;;;;;11.05;4.93;;;20.90;1.00;;;;;;4941297;29;20413;-82
2023/06/20 01:48:28;;;;;;;9.90;4.97;;;20.90;1.00;;;;;;4940517;29;20941;-83
2023/06/20 01:50:54;;;;;;;11.25;4.43;;;20.90;1.00;;;;;;4958252;29;20394;-82
2023/06/20 01:53:21;;;;;;;9.02;4.03;;;20.80;1.00;;;;;;4957639;29;20398;-82
2023/06/20 01:55:48;;;;;;;7.85;3.47;;;20.90;1.00;;;;;;4959547;29;20414;-82
2023/06/20 01:58:16;;;;;;;10.25;4.10;;;20.80;1.00;;;;;;4943526;29;20405;-82
2023/06/20 02:00:43;;;;;;;9.10;4.30;;;20.90;1.00;;;;;;4974115;28;20428;-82
2023/06/20 02:03:11;;;;;;;9.55;3.60;;;20.80;1.00;;;;;;4977680;28;20821;-82
2023/06/20 02:05:38;;;;;;;7.70;3.45;;;20.90;1.00;;;;;;4979484;28;20400;-82
2023/06/20 02:08:05;;;;;;;9.10;3.70;;;20.90;1.00;;;;;;4975694;28;20446;-82
2023/06/20 02:10:31;;;;;;;8.27;3.40;;;20.90;1.00;;;;;;4974150;28;20404;-83
2023/06/20 02:12:58;;;;;;;8.02;3.58;;;20.90;1.00;;;;;;4956693;28;20412;-82
2023/06/20 02:15:25;;;;;;;7.68;3.20;;;20.90;1.00;;;;;;4984502;28;20489;-82
2023/06/20 02:17:51;;;;;;;7.50;3.70;;;21.00;1.00;;;;;;4974805;28;20413;-82
2023/06/20 02:20:17;;;;;;;7.60;3.58;;;21.00;1.00;;;;;;4972906;28;20431;-82
2023/06/20 02:22:45;;;;;;;8.35;3.08;;;21.00;1.00;;;;;;4974587;28;20439;-82
2023/06/20 02:25:18;;;;;;;8.02;3.63;;;21.00;1.00;;;;;;4976337;28;20483;-82
2023/06/20 02:27:47;;;;;;;7.47;3.22;;;21.20;1.00;;;;;;4977809;28;20467;-83
2023/06/20 02:30:14;;;;;;;8.32;4.05;;;21.20;1.00;;;;;;4977500;28;20874;-82
2023/06/20 02:32:42;;;;;;;8.65;3.85;;;21.30;1.00;;;;;;4977038;28;20412;-83
2023/06/20 02:35:10;;;;;;;8.40;3.60;;;21.40;1.00;;;;;;4974339;28;20393;-83
2023/06/20 02:37:37;;;;;;;9.40;3.97;;;21.30;1.00;;;;;;4975938;28;20526;-82
2023/06/20 02:40:07;;;;;;;9.37;3.67;;;21.30;1.00;;;;;;4956281;28;20396;-82
2023/06/20 02:42:33;;;;;;;8.07;3.70;;;21.30;1.00;;;;;;4956780;28;20853;-83
2023/06/20 02:45:00;;;;;;;8.25;3.80;;;21.30;1.00;;;;;;4978544;28;20400;-82
2023/06/20 02:47:51;;;;;;;9.80;4.03;;;21.30;1.00;;;;;;4963825;28;20436;-83
2023/06/20 02:50:24;;;;;;;8.27;3.63;;;21.20;1.00;;;;;;4974310;28;20475;-82
2023/06/20 02:53:12;;;;;;;10.35;3.40;;;21.10;1.00;;;;;;4955994;28;20408;-82
2023/06/20 02:55:41;;;;;;;9.30;3.80;;;21.10;1.00;;;;;;4973885;28;20406;-82
2023/06/20 02:58:12;;;;;;;11.30;3.55;;;20.90;1.00;;;;;;4973052;28;20502;-83
2023/06/20 03:00:43;;;;;;;9.07;4.20;;;20.80;1.00;;;;;;4972303;28;20419;-83
2023/06/20 03:03:18;;;;;;;8.07;4.07;;;20.70;1.00;;;;;;4971812;28;20416;-83
2023/06/20 03:05:45;;;;;;;8.95;4.00;;;20.70;1.00;;;;;;4973013;28;20408;-82
2023/06/20 03:08:13;;;;;;;7.45;3.30;;;20.60;1.00;;;;;;4973651;28;20490;-82
2023/06/20 03:10:41;;;;;;;10.10;4.20;;;20.60;1.00;;;;;;4972612;28;20404;-82
2023/06/20 03:13:07;;;;;;;9.25;3.95;;;20.70;1.00;;;;;;4971493;28;20464;-82
2023/06/20 03:15:32;;;;;;;11.37;4.50;;;20.70;1.00;;;;;;4984479;28;20410;-81
2023/06/20 03:18:01;;;;;;;8.30;3.90;;;20.70;1.00;;;;;;4967309;28;20964;-81
2023/06/20 03:20:28;;;;;;;10.17;4.27;;;20.70;1.00;;;;;;4956143;28;20518;-82
2023/06/20 03:22:53;;;;;;;9.93;4.10;;;20.70;1.00;;;;;;4972098;28;20400;-82
2023/06/20 03:25:19;;;;;;;9.40;4.13;;;20.60;1.00;;;;;;4953769;28;20483;-81
2023/06/20 03:27:46;;;;;;;9.43;4.57;;;20.50;1.00;;;;;;4972119;28;20388;-81
2023/06/20 03:30:14;;;;;;;8.38;3.95;;;20.30;1.00;;;;;;4971355;28;20411;-81
2023/06/20 03:32:40;;;;;;;9.00;4.65;;;20.20;1.00;;;;;;4959598;28;20409;-82
2023/06/20 03:35:06;;;;;;;9.68;4.55;;;20.10;1.00;;;;;;4937565;29;20413;-82
2023/06/20 03:37:32;;;;;;;9.10;3.85;;;20.10;1.00;;;;;;4953650;29;20447;-82
2023/06/20 03:39:57;;;;;;;9.40;4.13;;;20.10;1.00;;;;;;4918845;29;20456;-82
2023/06/20 03:42:23;;;;;;;11.33;4.63;;;20.10;1.00;;;;;;4967338;28;20412;-82
2023/06/20 03:44:49;;;;;;;10.03;4.60;;;20.20;1.00;;;;;;4972327;28;20392;-82
2023/06/20 03:47:14;;;;;;;10.83;4.77;;;20.30;1.00;;;;;;4959414;28;20881;-82
2023/06/20 03:49:41;;;;;;;9.60;4.53;;;20.30;1.00;;;;;;4968929;28;20411;-82
2023/06/20 03:52:07;;;;;;;10.52;4.53;;;20.20;1.00;;;;;;4970473;28;20400;-83
2023/06/20 03:54:34;;;;;;;10.57;4.90;;;20.20;1.00;;;;;;4961260;28;20421;-82
2023/06/20 03:57:00;;;;;;;9.30;4.90;;;20.30;1.00;;;;;;4963888;28;20391;-81
2023/06/20 03:59:29;;;;;;;9.75;4.60;;;20.30;1.00;;;;;;4941531;28;20448;-81
2023/06/20 04:01:55;;;;;;;12.30;5.38;;;20.30;1.00;;;;;;4960934;28;21140;-82
2023/06/20 04:04:21;;;;;;;11.03;5.13;;;20.30;1.00;;;;;;4961450;28;20409;-82
2023/06/20 04:06:49;;;;;;;9.93;5.13;;;20.30;1.00;;;;;;4960155;28;20425;-82
2023/06/20 04:09:18;;;;;;;11.13;5.22;;;20.30;1.00;;;;;;4936887;29;20480;-82
2023/06/20 04:11:45;;;;;;;10.70;5.93;;;20.40;1.00;;;;;;4952472;29;20389;-82
2023/06/20 04:14:10;;;;;;;9.93;5.30;;;20.30;1.00;;;;;;4951704;29;20500;-82
2023/06/20 04:16:36;;;;;;;11.30;5.72;;;20.40;1.00;;;;;;4953007;28;20428;-82
2023/06/20 04:19:02;;;;;;;12.70;5.50;;;20.40;1.00;;;;;;4952255;29;20481;-82
2023/06/20 04:21:31;;;;;;;11.18;5.47;;;20.50;1.00;;;;;;4953049;29;20978;-82
2023/06/20 04:23:56;;;;;;;11.93;5.45;;;20.50;1.00;;;;;;4960985;29;20899;-82
2023/06/20 04:26:22;;;;;;;11.40;4.90;;;20.60;1.00;;;;;;4977892;28;20444;-82
2023/06/20 04:28:48;;;;;;;13.07;5.87;;;20.60;1.00;;;;;;4977698;28;20447;-82
2023/06/20 04:31:16;;;;;;;11.98;5.60;;;20.70;1.00;;;;;;4975094;28;21198;-82
2023/06/20 04:33:44;;;;;;;12.57;6.20;;;20.80;1.00;;;;;;4948955;28;20454;-78
2023/06/20 04:36:13;;;;;;;10.40;5.47;;;20.80;1.00;;;;;;4962173;28;20445;-79
2023/06/20 04:38:42;;;;;;;11.20;5.13;;;20.90;1.00;;;;;;4957026;28;20919;-78
2023/06/20 04:41:08;;;;;;;12.30;5.60;;;20.90;1.00;;;;;;4932861;29;21002;-78
2023/06/20 04:43:35;;;;;;;10.60;5.20;;;21.00;1.00;;;;;;4950185;29;20469;-78
2023/06/20 04:46:00;;;;;;;12.80;5.05;;;21.10;1.00;;;;;;4952912;28;20422;-78
2023/06/20 04:48:30;;;;;;;11.95;5.60;;;21.20;1.00;;;;;;4956520;28;20413;-78
2023/06/20 04:50:56;;;;;;;11.05;5.78;;;21.20;1.00;;;;;;4963103;28;20417;-78
2023/06/20 04:53:23;;;;;;;9.98;5.22;;;21.30;1.00;;;;;;4964345;28;20391;-78
2023/06/20 04:55:52;;;;;;;12.43;6.03;;;21.40;1.00;;;;;;4964262;28;20476;-78
2023/06/20 04:58:17;;;;;;;13.33;5.77;;;21.70;1.00;;;;;;4961556;28;20749;-78
2023/06/20 05:00:43;;;;;;;12.20;4.97;;;22.30;1.00;;;;;;4963718;28;20417;-78
2023/06/20 05:03:08;;;;;;;9.43;4.47;;;23.10;1.00;;;;;;4965601;28;20836;-77
2023/06/20 05:05:34;;;;;;;9.97;4.50;;;24.10;1.70;;;;;;4959034;28;20930;-76
2023/06/20 05:07:59;;;;;;;11.30;4.73;;;25.40;1.00;;;;;;4959778;28;20473;-82
2023/06/20 05:10:25;;;;;;;10.23;4.10;;;26.60;99.90;;;;;;4974233;28;20434;-80
2023/06/20 05:12:50;;;;;;;9.00;3.50;;;27.90;99.90;;;;;;4983640;28;20416;-80
2023/06/20 05:15:23;;;;;;;8.77;3.10;;;28.70;1.00;;;;;;4971428;28;20425;-81
2023/06/20 05:17:52;;;;;;;7.30;2.60;;;29.10;1.00;;;;;;4964801;29;20497;-81
2023/06/20 05:20:20;;;;;;;6.88;2.38;;;29.10;1.00;;;;;;4961025;29;20418;-82
2023/06/20 05:22:45;;;;;;;7.97;2.75;;;29.20;1.00;;;;;;4971046;29;20385;-82
2023/06/20 05:25:11;;;;;;;8.15;2.95;;;29.20;1.00;;;;;;4975461;28;20489;-82
2023/06/20 05:27:37;;;;;;;8.20;3.17;;;29.20;99.90;;;;;;4973028;29;20425;-82
2023/06/20 05:30:04;;;;;;;9.40;3.20;;;29.20;1.00;;;;;;4972404;29;20418;-82
2023/06/20 05:32:30;;;;;;;7.50;3.10;;;29.20;1.00;;;;;;4971883;29;20475;-81
2023/06/20 05:34:55;;;;;;;8.40;2.80;;;29.30;1.00;;;;;;4961381;29;20401;-81
2023/06/20 05:37:21;;;;;;;7.50;3.05;;;29.10;99.90;;;;;;4939760;29;20860;-81
2023/06/20 05:39:46;;;;;;;9.40;3.00;;;28.10;1.00;;;;;;4955469;29;20763;-82
2023/06/20 05:42:12;;;;;;;7.10;2.60;;;28.30;1.00;;;;;;4975061;28;20464;-82
2023/06/20 05:44:37;;;;;;;7.77;2.63;;;28.70;99.90;;;;;;4975974;28;20408;-82
2023/06/20 05:47:06;;;;;;;7.97;3.13;;;28.40;1.00;;;;;;4974974;28;20404;-81
2023/06/20 05:49:32;;;;;;;8.30;2.83;;;27.90;1.00;;;;;;4975820;28;20542;-81
2023/06/20 05:51:58;;;;;;;8.23;3.00;;;28.20;1.00;;;;;;4976032;28;20400;-81
2023/06/20 05:54:24;;;;;;;7.23;2.90;;;28.70;99.90;;;;;;4975882;28;20463;-82
2023/06/20 05:56:50;;;;;;;7.80;2.90;;;29.20;99.90;;;;;;4974565;28;20392;-82
2023/06/20 05:59:16;;;;;;;9.20;3.08;;;29.20;99.90;;;;;;4957638;28;20433;-82
2023/06/20 06:01:43;;;;;;;9.03;3.37;;;28.90;99.90;;;;;;4944091;29;20414;-82
2023/06/20 06:04:09;;;;;;;8.00;2.80;;;29.10;99.90;;;;;;4966611;28;20415;-82
2023/06/20 06:06:34;;;;;;;7.28;2.80;;;29.20;99.90;;;;;;4975886;28;20412;-82
2023/06/20 06:09:00;;;;;;;8.10;3.00;;;29.80;99.90;;;;;;4960964;28;20400;-82
2023/06/20 06:11:25;;;;;;;6.50;2.60;;;29.80;99.90;;;;;;4976979;28;20412;-82
2023/06/20 06:13:52;;;;;;;7.72;2.85;;;30.10;99.90;;;;;;4976488;28;20463;-82
2023/06/20 06:16:19;;;;;;;8.07;3.00;;;30.10;99.90;;;;;;4976728;28;20396;-83
2023/06/20 06:18:44;;;;;;;7.90;3.20;;;30.30;99.90;;;;;;4977154;28;20862;-83
2023/06/20 06:21:10;;;;;;;11.77;3.30;;;31.10;99.90;;;;;;4975242;28;20434;-83
2023/06/20 06:23:36;;;;;;;8.87;3.63;;;31.30;99.90;;;;;;4976934;28;20455;-83
2023/06/20 06:26:02;;;;;;;9.40;3.30;;;31.50;99.90;;;;;;4977848;28;20399;-83
2023/06/20 06:28:28;;;;;;;9.63;3.40;;;30.60;99.90;;;;;;4976244;28;20389;-83
2023/06/20 06:31:17;;;;;;;9.05;3.90;;;29.90;99.90;;;;;;4974593;28;20430;-83
2023/06/20 06:33:43;;;;;;;8.00;3.30;;;29.80;99.90;;;;;;4960069;29;20406;-83
2023/06/20 06:36:09;;;;;;;8.68;3.60;;;29.30;99.90;;;;;;4955289;29;20835;-83
2023/06/20 06:38:35;;;;;;;7.40;3.10;;;29.30;99.90;;;;;;4955627;29;20807;-83
2023/06/20 06:41:01;;;;;;;8.90;3.72;;;29.60;99.90;;;;;;4973613;28;20420;-83
2023/06/20 06:43:27;;;;;;;7.70;3.30;;;30.00;99.90;;;;;;4976389;28;20447;-83
2023/06/20 06:45:53;;;;;;;7.90;3.43;;;31.00;99.90;;;;;;4974996;28;20396;-80
2023/06/20 06:48:18;;;;;;;9.70;3.90;;;32.30;99.90;;;;;;4971141;28;20406;-80
2023/06/20 06:50:44;;;;;;;9.10;3.80;;;32.30;99.90;;;;;;4957514;29;20982;-83
2023/06/20 06:53:11;;;;;;;8.35;3.30;;;33.30;99.90;;;;;;4939918;29;20406;-83
2023/06/20 06:55:36;;;;;;;9.10;3.88;;;34.20;99.90;;;;;;4937381;29;20417;-83
2023/06/20 06:58:02;;;;;;;8.67;4.27;;;34.20;99.90;;;;;;4965269;28;20392;-82
2023/06/20 07:00:29;;;;;;;10.07;3.60;;;33.80;99.90;;;;;;4973230;28;20953;-82
2023/06/20 07:02:55;;;;;;;8.95;4.05;;;33.40;99.90;;;;;;4977118;28;20392;-82
2023/06/20 07:05:21;;;;;;;9.95;3.45;;;32.30;99.90;;;;;;4973852;28;20398;-82
2023/06/20 07:07:46;;;;;;;9.30;3.87;;;32.70;99.90;;;;;;4957890;28;20452;-82
2023/06/20 07:10:12;;;;;;;8.30;3.63;;;33.00;99.90;;;;;;4941725;29;20465;-83
2023/06/20 07:12:39;;;;;;;9.20;3.50;;;33.10;99.90;;;;;;4958028;29;20398;-82
2023/06/20 07:15:05;;;;;;;10.27;3.60;;;33.10;99.90;;;;;;4975487;28;20411;-83
2023/06/20 07:17:30;;;;;;;8.95;3.25;;;32.60;99.90;;;;;;4972797;28;20480;-83
2023/06/20 07:19:57;;;;;;;9.60;3.72;;;32.60;99.90;;;;;;4972795;28;20392;-83
2023/06/20 07:22:23;;;;;;;9.00;3.30;;;32.80;99.90;;;;;;4969755;28;20437;-83
2023/06/20 07:24:49;;;;;;;8.35;3.90;;;33.10;99.90;;;;;;4936050;29;20783;-83
2023/06/20 07:27:15;;;;;;;8.73;3.70;;;34.20;99.90;;;;;;4966574;28;20410;-82
2023/06/20 07:29:41;;;;;;;9.07;3.90;;;32.80;99.90;;;;;;4972600;28;20404;-83
2023/06/20 07:32:06;;;;;;;8.20;3.90;;;32.50;99.90;;;;;;4971859;28;20400;-85
2023/06/20 07:34:32;;;;;;;9.00;3.90;;;32.90;99.90;;;;;;4971277;28;20395;-81
2023/06/20 07:36:58;;;;;;;9.83;4.03;;;32.30;99.90;;;;;;4972521;28;20408;-82
2023/06/20 07:39:23;;;;;;;8.90;3.67;;;32.80;99.90;;;;;;4979243;28;20396;-82
2023/06/20 07:41:49;;;;;;;8.82;3.95;;;33.10;99.90;;;;;;4980052;28;20429;-82
2023/06/20 07:44:14;;;;;;;8.80;4.10;;;33.70;99.90;;;;;;4976217;28;20412;-80
2023/06/20 07:46:40;;;;;;;9.47;4.40;;;34.60;99.90;;;;;;4974267;28;20385;-82
2023/06/20 07:49:06;;;;;;;9.52;4.20;;;34.90;99.90;;;;;;4973640;28;20482;-82
2023/06/20 07:51:33;;;;;;;11.50;3.60;;;35.00;99.90;;;;;;4972893;28;20495;-81
2023/06/20 07:54:02;;;;;;;9.50;3.88;;;35.50;99.90;;;;;;4956699;28;20469;-81
2023/06/20 07:56:28;;;;;;;8.68;3.70;;;35.20;99.90;;;;;;4952397;28;20457;-81
2023/06/20 07:58:53;;;;;;;9.53;4.50;;;34.80;99.90;;;;;;4962050;28;20422;-81
2023/06/20 08:01:19;;;;;;;9.80;4.10;;;35.20;99.90;;;;;;4972142;28;20424;-81
2023/06/20 08:03:44;;;;;;;10.60;4.90;;;35.30;99.90;;;;;;4967964;28;20783;-83
2023/06/20 08:06:10;;;;;;;8.98;4.57;;;35.20;99.90;;;;;;4958145;28;20408;-82
2023/06/20 08:08:38;;;;;;;9.30;3.97;;;34.70;99.90;;;;;;4972661;28;20404;-82
2023/06/20 08:11:04;;;;;;;8.88;3.90;;;35.30;99.90;;;;;;4972863;28;20575;-82
2023/06/20 08:13:30;;;;;;;9.13;4.17;;;35.50;99.90;;;;;;4972005;28;20440;-82
2023/06/20 08:15:55;;;;;;;9.45;4.03;;;34.90;99.90;;;;;;4972177;28;20419;-82
2023/06/20 08:18:21;;;;;;;8.90;4.00;;;35.10;99.90;;;;;;4972077;28;20412;-83
2023/06/20 08:20:47;;;;;;;8.40;3.80;;;35.70;99.90;;;;;;4973130;28;20419;-82
2023/06/20 08:23:13;;;;;;;10.15;5.43;;;36.10;99.90;;;;;;4975310;28;20414;-82
2023/06/20 08:25:39;;;;;;;11.15;4.32;;;34.70;99.90;;;;;;4974544;28;20498;-83
2023/06/20 08:28:04;;;;;;;9.23;4.33;;;33.30;99.90;;;;;;4974725;28;20392;-82
2023/06/20 08:30:30;;;;;;;8.80;4.00;;;33.10;99.90;;;;;;4975263;28;20427;-82
2023/06/20 08:32:56;;;;;;;11.10;4.60;;;33.70;99.90;;;;;;4976530;28;20809;-83
2023/06/20 08:35:21;;;;;;;10.53;4.70;;;33.10;99.90;;;;;;4959440;28;20400;-82
2023/06/20 08:37:48;;;;;;;9.70;4.37;;;33.10;99.90;;;;;;4977152;28;21099;-82
2023/06/20 08:40:14;;;;;;;9.20;4.28;;;33.10;99.90;;;;;;4977767;28;20392;-82
2023/06/20 08:42:42;;;;;;;10.20;4.63;;;33.50;99.90;;;;;;4977628;28;20395;-82
2023/06/20 08:45:13;;;;;;;11.60;4.30;;;33.90;99.90;;;;;;4978428;28;20737;-83
2023/06/20 08:47:38;;;;;;;9.40;3.92;;;34.70;99.90;;;;;;4976955;28;20901;-83
2023/06/20 08:50:04;;;;;;;10.50;4.45;;;35.60;99.90;;;;;;4978185;28;20388;-83
2023/06/20 08:52:31;;;;;;;12.07;4.60;;;36.40;99.90;;;;;;4976309;28;20490;-82
2023/06/20 08:54:58;;;;;;;11.00;4.38;;;36.90;99.90;;;;;;4976322;28;20408;-83
2023/06/20 08:57:24;;;;;;;10.80;4.45;;;37.10;99.90;;;;;;4975623;28;20380;-82
2023/06/20 08:59:50;;;;;;;12.18;4.30;;;36.50;99.90;;;;;;4958135;28;20459;-82
2023/06/20 09:02:18;;;;;;;10.77;4.40;;;36.70;99.90;;;;;;4976933;28;20424;-81
2023/06/20 09:04:44;;;;;;;10.25;4.55;;;36.30;99.90;;;;;;4977569;28;20400;-81
2023/06/20 09:07:21;;;;;;;10.37;4.67;;;36.50;99.90;;;;;;4976831;28;20388;-83
2023/06/20 09:09:47;;;;;;;8.70;4.50;;;36.60;99.90;;;;;;4976375;28;20408;-83
2023/06/20 09:12:14;;;;;;;9.48;4.40;;;36.50;99.90;;;;;;4976666;28;20404;-82
2023/06/20 09:14:40;;;;;;;9.45;4.68;;;35.40;99.90;;;;;;4975943;28;20396;-83
2023/06/20 09:17:09;;;;;;;10.00;4.88;;;35.70;99.90;;;;;;4983738;28;20508;-83
2023/06/20 09:19:43;;;;;;;10.30;4.55;;;35.50;99.90;;;;;;4978868;28;20408;-82
2023/06/20 09:22:12;;;;;;;9.50;4.33;;;35.70;99.90;;;;;;4977362;28;20936;-82
2023/06/20 09:24:42;;;;;;;9.73;3.90;;;35.70;99.90;;;;;;4977284;28;20396;-83
2023/06/20 09:27:08;;;;;;;11.15;4.75;;;36.20;99.90;;;;;;4976543;28;20789;-83
2023/06/20 09:29:47;;;;;;;9.95;5.03;;;37.40;99.90;;;;;;4976194;28;20412;-80
2023/06/20 09:32:21;;;;;;;12.30;4.80;;;37.40;99.90;;;;;;4975157;28;20404;-82
2023/06/20 09:34:47;;;;;;;9.13;4.50;;;36.80;99.90;;;;;;4976196;28;20436;-83
2023/06/20 09:37:15;;;;;;;10.00;4.53;;;36.50;99.90;;;;;;4958556;28;20399;-83
2023/06/20 09:39:41;;;;;;;10.32;4.40;;;36.50;99.90;;;;;;4976694;28;20427;-83
2023/06/20 09:42:11;;;;;;;10.30;4.70;;;37.20;99.90;;;;;;4976388;28;20424;-81
2023/06/20 09:44:37;;;;;;;12.98;5.30;;;37.90;99.90;;;;;;4976068;28;20423;-82
2023/06/20 09:47:03;;;;;;;9.53;4.60;;;37.90;99.90;;;;;;4981082;28;20697;-80
2023/06/20 09:49:30;;;;;;;10.05;5.20;;;38.60;99.90;;;;;;4982662;28;20399;-81
2023/06/20 09:52:07;;;;;;;9.38;5.00;;;39.20;99.90;;;;;;4980677;28;20411;-80
2023/06/20 09:54:50;;;;;;;10.80;4.10;;;37.60;99.90;;;;;;4975542;28;20418;-83
2023/06/20 09:57:21;;;;;;;12.17;5.37;;;37.70;99.90;;;;;;4978744;28;20409;-81
2023/06/20 09:59:50;;;;;;;10.00;4.90;;;38.40;99.90;;;;;;4979544;28;20412;-81
2023/06/20 10:02:17;;;;;;;8.98;4.72;;;38.70;99.90;;;;;;4979592;28;20428;-81
2023/06/20 10:04:44;;;;;;;8.60;3.90;;;38.30;99.90;;;;;;4978062;28;20941;-81
2023/06/20 10:07:13;;;;;;;11.97;3.93;;;38.40;99.90;;;;;;4977207;28;20423;-81
2023/06/20 10:09:41;;;;;;;10.20;4.50;;;38.20;99.90;;;;;;4974487;28;20408;-82
2023/06/20 10:12:09;;;;;;;9.32;4.50;;;38.50;99.90;;;;;;4959037;28;20404;-81
2023/06/20 10:14:35;;;;;;;9.30;4.77;;;38.60;99.90;;;;;;4959909;28;20395;-82
2023/06/20 10:17:08;;;;;;;9.15;4.28;;;38.50;99.90;;;;;;4976420;28;20408;-82
2023/06/20 10:19:48;;;;;;;9.75;4.60;;;37.90;99.90;;;;;;4975785;28;20443;-82
2023/06/20 10:22:14;;;;;;;9.38;4.25;;;37.80;99.90;;;;;;4974963;28;20427;-82
2023/06/20 10:24:40;;;;;;;12.65;4.18;;;38.10;99.90;;;;;;4959241;28;20824;-82
2023/06/20 10:27:07;;;;;;;10.43;3.90;;;37.70;99.90;;;;;;4976212;28;20404;-82
2023/06/20 10:29:40;;;;;;;9.25;4.15;;;37.80;99.90;;;;;;4958654;28;21001;-82
2023/06/20 10:32:07;;;;;;;9.48;4.65;;;37.80;99.90;;;;;;4975529;28;20487;-82
2023/06/20 10:34:35;;;;;;;9.93;4.15;;;37.90;99.90;;;;;;4975056;28;20396;-82
2023/06/20 10:37:19;;;;;;;9.05;3.90;;;37.40;99.90;;;;;;4974353;28;20396;-82
2023/06/20 10:39:56;;;;;;;9.13;3.90;;;36.00;99.90;;;;;;4958039;28;20400;-82
2023/06/20 10:42:40;;;;;;;9.20;4.28;;;35.50;99.90;;;;;;4974529;28;20435;-82
2023/06/20 10:45:23;;;;;;;10.30;4.43;;;35.40;99.90;;;;;;4957936;28;21180;-82
2023/06/20 10:47:50;;;;;;;10.70;4.20;;;35.50;99.90;;;;;;4975978;28;20391;-83
2023/06/20 10:50:16;;;;;;;8.70;3.67;;;35.50;99.90;;;;;;4959371;28;20396;-82
2023/06/20 10:52:42;;;;;;;9.32;4.35;;;35.70;99.90;;;;;;4981412;28;20487;-82
2023/06/20 10:55:23;;;;;;;9.10;4.40;;;35.80;99.90;;;;;;4980167;28;20403;-82
2023/06/20 10:57:50;;;;;;;10.82;3.55;;;35.00;99.90;;;;;;4975607;28;20706;-82
2023/06/20 11:00:18;;;;;;;9.55;4.70;;;34.90;99.90;;;;;;4974976;28;20395;-82
2023/06/20 11:02:50;;;;;;;11.32;4.85;;;34.50;99.90;;;;;;4975231;28;20411;-82
2023/06/20 11:05:17;;;;;;;8.88;4.05;;;34.10;99.90;;;;;;4974742;28;20400;-82
2023/06/20 11:08:01;;;;;;;9.45;3.83;;;34.30;99.90;;;;;;4975636;28;20399;-82
2023/06/20 11:10:31;;;;;;;10.52;3.30;;;34.20;99.90;;;;;;4957150;28;21134;-82
2023/06/20 11:12:58;;;;;;;10.65;3.90;;;34.30;99.90;;;;;;4974744;28;20395;-82
2023/06/20 11:15:25;;;;;;;12.20;4.30;;;34.50;99.90;;;;;;4974480;28;20404;-82
2023/06/20 11:17:51;;;;;;;9.48;3.58;;;35.10;99.90;;;;;;4974465;28;20507;-82
2023/06/20 11:20:19;;;;;;;9.13;3.80;;;35.40;99.90;;;;;;4974536;28;20392;-82
2023/06/20 11:22:47;;;;;;;9.38;4.10;;;35.30;99.90;;;;;;4973717;28;20407;-82
2023/06/20 11:25:35;;;;;;;8.93;3.70;;;35.50;99.90;;;;;;4974183;28;20475;-82
2023/06/20 11:28:05;;;;;;;8.43;3.83;;;35.20;99.90;;;;;;4972066;28;20396;-82
2023/06/20 11:30:32;;;;;;;9.40;4.10;;;35.20;99.90;;;;;;4973257;28;20423;-82
2023/06/20 11:33:01;;;;;;;9.17;4.03;;;35.40;99.90;;;;;;4972860;28;20396;-82
2023/06/20 11:35:47;;;;;;;9.10;3.88;;;35.60;99.90;;;;;;4972818;28;20896;-82
2023/06/20 11:38:24;;;;;;;10.10;3.88;;;35.90;99.90;;;;;;4974736;28;20404;-82
2023/06/20 11:41:03;;;;;;;9.55;4.00;;;35.70;99.90;;;;;;4974023;28;20420;-82
2023/06/20 11:43:38;;;;;;;10.20;4.18;;;35.50;99.90;;;;;;4973689;28;21063;-82
2023/06/20 11:46:04;;;;;;;9.15;4.10;;;35.40;99.90;;;;;;4974141;28;20411;-82
2023/06/20 11:48:31;;;;;;;7.28;3.17;;;34.80;99.90;;;;;;4974651;28;20449;-82
2023/06/20 11:50:59;;;;;;;8.97;4.20;;;34.60;99.90;;;;;;4974775;28;20932;-82
2023/06/20 11:53:29;;;;;;;10.75;3.90;;;34.40;99.90;;;;;;4974811;28;20915;-82
2023/06/20 11:55:57;;;;;;;11.35;4.40;;;34.30;99.90;;;;;;4944009;28;20404;-82
2023/06/20 11:58:26;;;;;;;8.98;4.10;;;34.60;99.90;;;;;;4978008;28;20396;-82
2023/06/20 12:01:00;;;;;;;11.10;4.00;;;34.90;99.90;;;;;;4978089;28;20424;-82
2023/06/20 12:03:26;;;;;;;11.38;4.90;;;35.20;99.90;;;;;;4977972;28;20475;-82
2023/06/20 12:05:52;;;;;;;10.23;4.80;;;35.20;99.90;;;;;;4977950;28;20408;-82
2023/06/20 12:08:19;;;;;;;8.77;4.37;;;35.30;99.90;;;;;;4977917;28;20424;-82
2023/06/20 12:10:57;;;;;;;10.35;4.18;;;35.50;99.90;;;;;;4961796;28;20392;-81
2023/06/20 12:13:22;;;;;;;9.00;4.30;;;35.30;99.90;;;;;;4978021;28;20403;-82
2023/06/20 12:15:48;;;;;;;10.80;5.45;;;35.50;99.90;;;;;;4976664;28;20392;-82
2023/06/20 12:18:13;;;;;;;9.33;4.57;;;35.70;99.90;;;;;;4765630;28;6133996;-82
2023/06/20 12:20:39;;;;;;;12.30;4.15;;;35.90;99.90;;;;;;4977098;28;20439;-82
2023/06/20 12:23:04;;;;;;;10.33;4.40;;;36.10;99.90;;;;;;4976427;28;20390;-82
2023/06/20 12:25:30;;;;;;;10.70;3.97;;;36.20;99.90;;;;;;4958724;28;20913;-82
2023/06/20 12:27:57;;;;;;;12.25;4.68;;;36.00;99.90;;;;;;4964639;28;20408;-82
2023/06/20 12:30:25;;;;;;;11.40;4.43;;;35.60;99.90;;;;;;4984630;28;20403;-82
2023/06/20 12:32:51;;;;;;;9.80;4.40;;;35.30;99.90;;;;;;4979773;28;20376;-82
2023/06/20 12:35:16;;;;;;;10.10;4.22;;;35.20;99.90;;;;;;4977252;28;20409;-82
2023/06/20 12:37:42;;;;;;;10.20;4.75;;;35.30;99.90;;;;;;4977728;28;20419;-83
2023/06/20 12:40:09;;;;;;;12.77;4.77;;;35.20;99.90;;;;;;4975616;28;20396;-83
2023/06/20 12:42:36;;;;;;;9.85;3.80;;;35.20;99.90;;;;;;4975677;28;20480;-82
2023/06/20 12:45:02;;;;;;;10.35;5.20;;;35.30;99.90;;;;;;4974820;28;20964;-82
2023/06/20 12:47:27;;;;;;;9.60;4.53;;;35.20;99.90;;;;;;4977034;28;20396;-82
2023/06/20 12:49:54;;;;;;;12.60;4.30;;;35.20;99.90;;;;;;4962137;28;20439;-82